Time;durP1;ratioP1;P1;durP2;ratioP2;P2;SDS_P1;SDS_P2;PMS_P1;PMS_P2;Temp;Humidity;BMP_temperature;BMP_pressure;BME280_temperature;BME280_humidity;BME280_pressure;Samples;Min_cycle;Max_cycle;Signal;HPM_P1;HPM_P2
2022/01/14 00:02:13;;;;;;;362.50;152.23;;;-1.10;99.90;;;;;;5033203;28;20026;-45
2022/01/14 00:04:39;;;;;;;370.57;157.80;;;-1.30;99.90;;;;;;5033300;28;20025;-59
2022/01/14 00:07:06;;;;;;;274.97;121.60;;;-1.20;99.90;;;;;;5034859;28;20373;-55
2022/01/14 00:09:33;;;;;;;273.10;118.50;;;-1.10;99.90;;;;;;5036845;28;20521;-65
2022/01/14 00:12:00;;;;;;;276.53;115.83;;;-1.00;99.90;;;;;;5036930;28;20033;-61
2022/01/14 00:14:40;;;;;;;254.50;107.77;;;-1.00;99.90;;;;;;5037069;28;20037;-60
2022/01/14 00:17:13;;;;;;;266.27;117.23;;;-1.00;99.90;;;;;;5037180;28;20075;-54
2022/01/14 00:19:40;;;;;;;295.15;128.75;;;-0.90;99.90;;;;;;5036748;28;20415;-53
2022/01/14 00:22:11;;;;;;;240.83;103.07;;;-1.00;99.90;;;;;;5036684;28;20116;-57
2022/01/14 00:33:16;;;;;;;201.53;85.40;;;-0.80;99.90;;;;;;5036948;28;20502;-58
2022/01/14 00:35:42;;;;;;;181.03;79.73;;;-0.80;99.90;;;;;;5036499;28;20025;-56
2022/01/14 00:38:09;;;;;;;184.67;83.53;;;-0.70;99.90;;;;;;5036211;28;20029;-61
2022/01/14 00:40:35;;;;;;;187.23;82.60;;;-0.60;99.90;;;;;;5036335;28;20026;-56
2022/01/14 00:43:01;;;;;;;178.53;78.83;;;-0.60;99.90;;;;;;5036386;28;20076;-56
2022/01/14 00:45:27;;;;;;;169.77;72.90;;;-0.50;99.90;;;;;;5036344;28;20057;-63
2022/01/14 00:47:53;;;;;;;155.83;69.10;;;-0.50;99.90;;;;;;5036257;28;20491;-50
2022/01/14 00:50:20;;;;;;;150.73;68.93;;;-0.50;99.90;;;;;;5036390;28;20043;-61
2022/01/14 00:52:46;;;;;;;143.67;62.93;;;-0.40;99.90;;;;;;5035983;28;20065;-54
2022/01/14 00:55:16;;;;;;;136.27;60.30;;;-0.40;99.90;;;;;;5036044;28;20056;-51
2022/01/14 01:00:35;;;;;;;156.37;67.83;;;-0.30;99.90;;;;;;5036336;28;20025;-59
2022/01/14 01:03:02;;;;;;;129.07;56.30;;;-0.30;99.90;;;;;;5035984;28;20025;-50
2022/01/14 01:05:28;;;;;;;131.90;56.67;;;-0.30;99.90;;;;;;5036119;28;20025;-62
2022/01/14 01:08:08;;;;;;;179.10;75.67;;;-0.30;99.90;;;;;;5036115;28;20040;-46
2022/01/14 01:10:35;;;;;;;130.88;58.00;;;-0.20;99.90;;;;;;5036209;28;20033;-55
2022/01/14 01:13:18;;;;;;;142.60;60.33;;;-0.20;99.90;;;;;;5036126;28;20087;-64
2022/01/14 01:15:45;;;;;;;189.73;79.27;;;-0.20;99.90;;;;;;5035849;28;20038;-57
2022/01/14 01:18:11;;;;;;;219.20;93.50;;;-0.10;99.90;;;;;;5035518;28;20395;-61
2022/01/14 01:20:37;;;;;;;143.55;63.97;;;-0.10;99.90;;;;;;5035496;28;20022;-56
2022/01/14 01:23:04;;;;;;;140.38;61.65;;;-0.20;99.90;;;;;;5035355;28;20025;-68
2022/01/14 01:25:38;;;;;;;159.23;64.28;;;-0.10;99.90;;;;;;5035431;28;20044;-50
2022/01/14 01:28:04;;;;;;;196.15;84.82;;;0.00;99.90;;;;;;5035363;28;20150;-54
2022/01/14 01:33:01;;;;;;;233.27;101.97;;;-0.10;99.90;;;;;;5035766;28;20426;-58
2022/01/14 01:35:28;;;;;;;159.13;71.87;;;0.00;99.90;;;;;;5035537;28;20064;-59
2022/01/14 01:37:54;;;;;;;165.10;75.27;;;-0.10;99.90;;;;;;5035397;28;20547;-64
2022/01/14 01:40:25;;;;;;;144.17;65.77;;;0.00;99.90;;;;;;5035445;28;20104;-61
2022/01/14 01:42:52;;;;;;;151.10;66.50;;;0.00;99.90;;;;;;5035104;28;20022;-49
2022/01/14 01:45:22;;;;;;;126.13;56.43;;;-0.10;99.90;;;;;;5035217;28;20022;-65
2022/01/14 01:47:50;;;;;;;118.73;55.67;;;-0.10;99.90;;;;;;5035134;28;20030;-68
2022/01/14 01:50:20;;;;;;;127.57;55.30;;;-0.10;99.90;;;;;;5035034;28;20061;-63
2022/01/14 01:52:46;;;;;;;120.40;53.97;;;-0.10;99.20;;;;;;5034999;28;20022;-58
2022/01/14 01:55:13;;;;;;;129.00;58.27;;;-0.20;99.30;;;;;;5034880;28;20026;-51
2022/01/14 01:57:41;;;;;;;114.13;53.97;;;-0.10;99.10;;;;;;5035039;28;20039;-55
2022/01/14 02:00:09;;;;;;;117.95;56.42;;;-0.20;99.90;;;;;;5035001;28;20017;-56
2022/01/14 02:02:36;;;;;;;117.00;53.97;;;-0.30;99.90;;;;;;5034771;28;20029;-47
2022/01/14 02:05:03;;;;;;;167.70;73.83;;;-0.30;99.90;;;;;;5035156;28;20084;-60
2022/01/14 02:07:28;;;;;;;182.47;80.03;;;-0.40;99.90;;;;;;5034685;28;20021;-57
2022/01/14 02:09:54;;;;;;;180.03;79.33;;;-0.40;99.90;;;;;;5034807;28;20439;-66
2022/01/14 02:12:20;;;;;;;154.13;68.33;;;-0.50;99.90;;;;;;5034970;28;20057;-63
2022/01/14 02:15:08;;;;;;;135.40;60.67;;;-0.50;99.90;;;;;;5034543;28;20018;-60
2022/01/14 02:17:52;;;;;;;117.70;53.80;;;-0.60;99.90;;;;;;5034575;28;20112;-61
2022/01/14 02:23:05;;;;;;;119.68;51.55;;;-0.50;99.90;;;;;;5034715;28;20533;-65
2022/01/14 02:25:32;;;;;;;167.30;73.10;;;-0.50;99.90;;;;;;5034209;28;20037;-57
2022/01/14 02:28:05;;;;;;;173.23;72.90;;;-0.40;99.90;;;;;;5034183;28;20493;-55
2022/01/14 02:30:33;;;;;;;206.35;91.60;;;-0.50;99.90;;;;;;5033626;28;20029;-63
2022/01/14 02:32:59;;;;;;;187.77;82.80;;;-0.60;99.90;;;;;;5034779;28;20525;-54
2022/01/14 02:35:25;;;;;;;171.37;73.90;;;-0.80;99.90;;;;;;5033891;28;20459;-63
2022/01/14 02:37:52;;;;;;;130.80;58.77;;;-0.80;99.90;;;;;;5034080;28;20049;-60
2022/01/14 02:40:19;;;;;;;132.03;57.27;;;-0.90;99.90;;;;;;5034447;28;20045;-60
2022/01/14 02:42:47;;;;;;;121.10;52.77;;;-0.80;99.90;;;;;;5034337;28;20494;-48
2022/01/14 02:45:13;;;;;;;108.37;50.37;;;-0.70;99.90;;;;;;5034164;28;20034;-59
2022/01/14 02:47:39;;;;;;;114.13;50.87;;;-0.70;99.90;;;;;;5034139;28;20071;-50
2022/01/14 02:50:12;;;;;;;102.13;47.40;;;-0.60;99.90;;;;;;5033747;28;20029;-61
2022/01/14 02:52:56;;;;;;;108.37;48.13;;;-0.60;99.90;;;;;;5033971;28;20036;-54
2022/01/14 02:55:28;;;;;;;125.20;54.47;;;-0.60;99.90;;;;;;5033711;28;20036;-55
2022/01/14 02:57:56;;;;;;;145.87;59.07;;;-0.60;99.90;;;;;;5033748;28;20072;-52
2022/01/14 03:00:26;;;;;;;135.73;57.47;;;-0.70;99.90;;;;;;5033776;28;20061;-61
2022/01/14 03:02:52;;;;;;;119.93;52.20;;;-0.70;99.90;;;;;;5033715;28;20024;-57
2022/01/14 03:05:20;;;;;;;122.40;53.13;;;-0.70;99.90;;;;;;5033602;28;20476;-65
2022/01/14 03:07:47;;;;;;;147.43;61.97;;;-0.70;99.90;;;;;;5033694;28;20487;-56
2022/01/14 03:10:15;;;;;;;127.37;52.70;;;-0.70;99.90;;;;;;5033575;28;20020;-58
2022/01/14 03:12:43;;;;;;;130.10;54.47;;;-0.70;99.90;;;;;;5033807;28;20017;-61
2022/01/14 03:15:10;;;;;;;146.43;65.37;;;-0.70;99.90;;;;;;5033738;28;20022;-60
2022/01/14 03:17:36;;;;;;;124.63;53.37;;;-0.80;99.90;;;;;;5033704;28;20084;-56
2022/01/14 03:20:04;;;;;;;134.77;60.60;;;-0.80;99.90;;;;;;5033419;28;20476;-56
2022/01/14 03:22:35;;;;;;;119.63;53.30;;;-0.80;99.90;;;;;;5033436;28;20080;-57
2022/01/14 03:27:50;;;;;;;134.93;58.67;;;-0.80;99.90;;;;;;5033837;28;20049;-49
2022/01/14 03:30:15;;;;;;;171.10;73.70;;;-0.80;99.90;;;;;;5033694;28;20036;-52
2022/01/14 03:32:42;;;;;;;186.73;81.37;;;-0.80;99.90;;;;;;5033251;28;20021;-58
2022/01/14 03:35:09;;;;;;;175.23;77.53;;;-0.90;99.90;;;;;;5033246;28;20026;-44
2022/01/14 03:37:35;;;;;;;137.53;62.50;;;-1.00;99.90;;;;;;5033295;28;20037;-62
2022/01/14 03:40:03;;;;;;;119.97;56.37;;;-1.00;99.90;;;;;;5033289;28;20030;-62
2022/01/14 03:42:29;;;;;;;138.87;57.43;;;-1.00;99.90;;;;;;5037393;28;20026;-50
2022/01/14 03:44:54;;;;;;;138.47;61.97;;;-0.90;99.90;;;;;;5037558;28;20025;-57
2022/01/14 03:47:20;;;;;;;125.33;55.93;;;-0.90;99.90;;;;;;5037469;28;20037;-52
2022/01/14 03:49:46;;;;;;;134.50;60.07;;;-0.90;99.90;;;;;;5037290;28;20018;-56
2022/01/14 03:52:12;;;;;;;111.67;50.20;;;-0.90;99.90;;;;;;5037166;28;20463;-57
2022/01/14 03:54:38;;;;;;;121.63;53.60;;;-1.00;99.90;;;;;;5037152;28;20026;-50
2022/01/14 03:57:03;;;;;;;128.63;59.93;;;-0.90;99.90;;;;;;5037299;28;20025;-50
2022/01/14 03:59:29;;;;;;;93.30;45.40;;;-0.90;99.90;;;;;;5037545;28;20025;-55
2022/01/14 04:01:55;;;;;;;96.03;44.97;;;-1.00;99.90;;;;;;5036891;28;20026;-56
2022/01/14 04:04:20;;;;;;;114.73;52.23;;;-1.00;99.90;;;;;;5037285;28;20036;-57
2022/01/14 04:06:46;;;;;;;101.40;48.67;;;-1.00;99.90;;;;;;5037420;28;20037;-55
2022/01/14 04:09:12;;;;;;;89.47;42.03;;;-0.90;99.90;;;;;;5036963;28;20034;-55
2022/01/14 04:11:39;;;;;;;87.97;41.93;;;-1.00;99.90;;;;;;5036897;28;20025;-49
2022/01/14 04:16:54;;;;;;;109.47;51.77;;;-0.90;99.90;;;;;;5044903;28;20056;-61
2022/01/14 04:19:20;;;;;;;98.53;46.13;;;-0.90;99.90;;;;;;5036847;28;20032;-50
2022/01/14 04:21:45;;;;;;;86.00;40.10;;;-1.00;99.90;;;;;;5036570;28;20100;-61
2022/01/14 04:24:11;;;;;;;89.60;42.33;;;-1.00;99.90;;;;;;5036672;28;20041;-66
2022/01/14 04:26:37;;;;;;;90.33;40.87;;;-1.10;99.90;;;;;;5036630;28;20089;-49
2022/01/14 04:29:03;;;;;;;85.90;40.43;;;-1.10;99.90;;;;;;5036610;28;20025;-64
2022/01/14 04:31:29;;;;;;;70.87;35.00;;;-1.00;99.90;;;;;;5036648;28;20018;-56
2022/01/14 04:33:55;;;;;;;77.60;36.80;;;-1.10;99.90;;;;;;5036565;28;20475;-58
2022/01/14 04:36:20;;;;;;;81.13;38.17;;;-1.10;99.90;;;;;;5036751;28;20025;-59
2022/01/14 04:38:46;;;;;;;76.53;36.77;;;-1.10;99.90;;;;;;5036679;28;20025;-63
2022/01/14 04:41:12;;;;;;;82.17;38.90;;;-1.10;99.90;;;;;;5036261;28;20027;-45
2022/01/14 04:43:39;;;;;;;96.47;43.13;;;-1.10;99.90;;;;;;5036610;28;20029;-65
2022/01/14 04:48:33;;;;;;;97.87;45.77;;;-1.10;99.90;;;;;;5036225;28;20390;-52
2022/01/14 04:50:59;;;;;;;85.00;41.00;;;-1.10;99.90;;;;;;5036237;28;20023;-57
2022/01/14 04:53:26;;;;;;;82.10;39.37;;;-1.10;99.90;;;;;;5035375;28;20132;-52
2022/01/14 04:55:53;;;;;;;90.80;42.27;;;-1.10;99.90;;;;;;5034848;28;20034;-55
2022/01/14 04:58:19;;;;;;;93.77;41.13;;;-1.10;99.90;;;;;;5036096;28;20042;-55
2022/01/14 05:00:45;;;;;;;96.23;44.83;;;-1.10;99.90;;;;;;5036028;28;20029;-61
2022/01/14 05:03:11;;;;;;;146.97;60.53;;;-1.10;99.90;;;;;;5036086;28;20030;-56
2022/01/14 05:05:38;;;;;;;88.93;41.83;;;-1.10;99.90;;;;;;5035977;28;20025;-60
2022/01/14 05:08:09;;;;;;;107.20;48.17;;;-1.20;99.90;;;;;;5036076;28;20033;-57
2022/01/14 05:10:47;;;;;;;123.17;54.50;;;-1.30;99.90;;;;;;5036078;28;20029;-54
2022/01/14 05:13:13;;;;;;;96.93;44.07;;;-1.30;99.90;;;;;;5035729;28;20021;-59
2022/01/14 05:15:38;;;;;;;101.73;45.30;;;-1.30;99.90;;;;;;5035545;28;20029;-47
2022/01/14 05:18:05;;;;;;;156.43;67.73;;;-1.30;99.90;;;;;;5035788;28;20021;-51
2022/01/14 05:20:30;;;;;;;160.43;70.27;;;-1.30;99.90;;;;;;5035531;28;20025;-50
2022/01/14 05:22:56;;;;;;;128.07;55.47;;;-1.40;99.90;;;;;;5035603;28;20024;-52
2022/01/14 05:25:22;;;;;;;117.80;51.57;;;-1.60;99.90;;;;;;5035525;28;20482;-49
2022/01/14 05:27:47;;;;;;;139.83;63.50;;;-1.60;99.90;;;;;;5035388;28;20026;-54
2022/01/14 05:30:14;;;;;;;123.50;53.90;;;-1.60;99.90;;;;;;5035233;28;20065;-56
2022/01/14 05:32:52;;;;;;;135.27;57.13;;;-1.60;99.90;;;;;;5035446;28;20028;-58
2022/01/14 05:35:20;;;;;;;141.50;61.17;;;-1.60;99.90;;;;;;5035151;28;20036;-53
2022/01/14 05:37:46;;;;;;;119.33;49.87;;;-1.70;99.90;;;;;;5035081;28;20476;-59
2022/01/14 05:40:13;;;;;;;138.30;61.60;;;-1.70;99.90;;;;;;5035183;28;20033;-51
2022/01/14 05:42:39;;;;;;;296.03;123.93;;;-1.60;99.90;;;;;;5034301;28;20044;-53
2022/01/14 05:45:08;;;;;;;225.30;97.20;;;-1.50;99.90;;;;;;5033122;28;20105;-45
2022/01/14 05:47:35;;;;;;;182.87;78.50;;;-1.60;99.90;;;;;;5033701;28;20382;-53
2022/01/14 05:50:01;;;;;;;228.60;99.10;;;-1.70;99.90;;;;;;5033683;28;20053;-43
2022/01/14 05:52:27;;;;;;;155.03;69.40;;;-1.60;99.90;;;;;;5033616;28;20415;-65
2022/01/14 05:54:53;;;;;;;150.43;64.57;;;-1.70;99.90;;;;;;5034066;28;20241;-64
2022/01/14 05:57:20;;;;;;;159.60;70.40;;;-1.70;99.90;;;;;;5033699;28;20111;-60
2022/01/14 05:59:47;;;;;;;137.80;58.60;;;-1.60;99.90;;;;;;5033225;28;20025;-60
2022/01/14 06:02:13;;;;;;;132.93;58.23;;;-1.60;99.90;;;;;;5034452;28;20018;-62
2022/01/14 06:04:39;;;;;;;157.47;67.30;;;-1.60;99.90;;;;;;5032477;28;20537;-56
2022/01/14 06:07:05;;;;;;;128.73;54.63;;;-1.60;99.90;;;;;;5034843;28;20029;-53
2022/01/14 06:09:31;;;;;;;164.93;67.97;;;-1.60;99.90;;;;;;5034594;28;20028;-61
2022/01/14 06:11:57;;;;;;;128.30;52.40;;;-1.60;99.90;;;;;;5034326;28;20061;-41
2022/01/14 06:14:23;;;;;;;168.93;64.67;;;-1.60;99.90;;;;;;5034499;28;20071;-63
2022/01/14 06:16:48;;;;;;;118.57;50.13;;;-1.50;99.90;;;;;;5034673;28;20021;-51
2022/01/14 06:19:14;;;;;;;191.73;73.83;;;-1.50;99.90;;;;;;5034364;28;20036;-52
2022/01/14 06:21:40;;;;;;;170.70;71.30;;;-1.60;99.90;;;;;;5034188;28;20029;-54
2022/01/14 06:24:06;;;;;;;132.03;54.60;;;-1.50;99.90;;;;;;5034170;28;20044;-53
2022/01/14 06:26:31;;;;;;;146.97;59.90;;;-1.50;99.90;;;;;;5034080;28;20036;-60
2022/01/14 06:28:57;;;;;;;198.53;79.37;;;-1.50;99.90;;;;;;5034236;28;20021;-62
2022/01/14 06:31:23;;;;;;;161.17;60.37;;;-1.50;99.90;;;;;;5034609;28;20070;-54
2022/01/14 06:33:49;;;;;;;212.40;88.83;;;-1.60;99.90;;;;;;5034144;28;20028;-50
2022/01/14 06:36:15;;;;;;;161.20;67.17;;;-1.60;99.90;;;;;;5033755;28;20028;-59
2022/01/14 06:38:40;;;;;;;155.90;68.87;;;-1.70;99.90;;;;;;5034064;28;20025;-47
2022/01/14 06:41:06;;;;;;;148.30;62.60;;;-1.70;99.90;;;;;;5033622;28;20530;-52
2022/01/14 06:43:32;;;;;;;139.53;60.37;;;-1.70;99.90;;;;;;5033745;28;20025;-64
2022/01/14 06:45:58;;;;;;;147.53;59.97;;;-1.50;99.90;;;;;;5033313;28;20448;-48
2022/01/14 06:48:24;;;;;;;133.73;59.73;;;-1.50;99.90;;;;;;5033645;28;20466;-62
2022/01/14 06:50:50;;;;;;;231.90;97.40;;;-1.40;99.90;;;;;;5033555;28;20032;-55
2022/01/14 06:53:16;;;;;;;154.43;66.80;;;-1.40;99.90;;;;;;5033485;28;20029;-50
2022/01/14 06:55:42;;;;;;;150.80;65.63;;;-1.40;99.90;;;;;;5033410;28;20026;-58
2022/01/14 06:58:08;;;;;;;191.13;79.93;;;-1.40;99.90;;;;;;5032600;28;20028;-58
2022/01/14 07:00:34;;;;;;;176.17;79.50;;;-1.40;99.90;;;;;;5033159;28;20026;-52
2022/01/14 07:03:00;;;;;;;162.20;67.03;;;-1.40;99.90;;;;;;5033123;28;20029;-63
2022/01/14 07:05:26;;;;;;;171.40;69.53;;;-1.40;99.90;;;;;;5033294;28;20057;-53
2022/01/14 07:07:52;;;;;;;239.07;99.20;;;-1.40;99.90;;;;;;5033035;28;20068;-46
2022/01/14 07:10:18;;;;;;;202.77;85.57;;;-1.30;99.90;;;;;;5032940;28;20434;-58
2022/01/14 07:12:44;;;;;;;215.80;91.77;;;-1.40;99.90;;;;;;5028357;28;20101;-59
2022/01/14 07:15:13;;;;;;;191.07;81.87;;;-1.40;99.90;;;;;;5046387;28;20032;-57
2022/01/14 07:17:40;;;;;;;230.53;98.40;;;-1.30;99.90;;;;;;5053133;28;20029;-54
2022/01/14 07:20:12;;;;;;;254.23;111.07;;;-1.20;99.90;;;;;;5051970;28;20029;-49
2022/01/14 07:22:42;;;;;;;288.07;119.70;;;-1.00;99.90;;;;;;5047094;28;20040;-47
2022/01/14 07:25:08;;;;;;;304.27;126.67;;;-0.70;99.90;;;;;;5041048;28;20053;-53
2022/01/14 07:27:36;;;;;;;244.97;106.47;;;-0.60;99.90;;;;;;5039643;28;20045;-57
2022/01/14 07:30:06;;;;;;;229.20;104.27;;;-0.50;99.00;;;;;;5035294;28;20061;-52
2022/01/14 07:32:32;;;;;;;219.80;100.10;;;-0.50;98.30;;;;;;5032751;28;20468;-54
2022/01/14 07:34:57;;;;;;;245.27;104.03;;;-0.50;98.50;;;;;;5032178;28;20036;-47
2022/01/14 07:37:23;;;;;;;213.73;95.97;;;-0.30;99.80;;;;;;5032989;28;20113;-56
2022/01/14 07:39:49;;;;;;;214.57;95.97;;;0.00;98.50;;;;;;5032572;28;20464;-50
2022/01/14 07:42:15;;;;;;;215.50;94.40;;;0.20;97.40;;;;;;5032915;28;20022;-54
2022/01/14 07:44:41;;;;;;;205.00;91.73;;;0.10;96.60;;;;;;5032975;28;20037;-53
2022/01/14 07:47:07;;;;;;;210.90;95.37;;;0.10;95.70;;;;;;5034075;28;20395;-51
2022/01/14 07:49:33;;;;;;;205.30;93.33;;;0.40;95.50;;;;;;5050864;28;20051;-54
2022/01/14 07:51:59;;;;;;;214.03;95.80;;;1.30;94.60;;;;;;5049769;28;20028;-54
2022/01/14 07:54:25;;;;;;;183.87;87.47;;;2.20;86.30;;;;;;5051089;28;20107;-60
2022/01/14 07:56:53;;;;;;;175.45;81.18;;;3.60;75.40;;;;;;5050916;28;20101;-54
2022/01/14 07:59:22;;;;;;;210.98;99.25;;;4.30;66.50;;;;;;5050213;28;20028;-57
2022/01/14 08:01:50;;;;;;;559.80;284.00;;;4.40;62.90;;;;;;5040499;28;20285;-64
2022/01/14 08:04:18;;;;;;;395.98;189.18;;;4.50;61.20;;;;;;5041071;28;20060;-63
2022/01/14 08:06:46;;;;;;;427.85;207.98;;;5.20;61.30;;;;;;5052855;28;20078;-53
2022/01/14 08:09:13;;;;;;;446.90;227.75;;;6.10;60.00;;;;;;5052473;28;20017;-56
2022/01/14 08:11:39;;;;;;;400.98;196.98;;;6.60;55.10;;;;;;5052592;28;20028;-54
2022/01/14 08:14:05;;;;;;;440.25;227.65;;;6.70;55.20;;;;;;5051022;28;20022;-53
2022/01/14 08:16:31;;;;;;;492.17;263.75;;;7.20;53.70;;;;;;5050748;28;20025;-50
2022/01/14 08:18:57;;;;;;;451.10;241.82;;;7.60;51.40;;;;;;5050954;28;20025;-57
2022/01/14 08:21:23;;;;;;;394.67;205.60;;;7.70;52.20;;;;;;5050628;28;20087;-58
2022/01/14 08:23:48;;;;;;;458.20;249.63;;;7.20;52.00;;;;;;5050574;28;20052;-58
2022/01/14 08:26:14;;;;;;;421.35;224.50;;;7.50;50.70;;;;;;5051400;28;20036;-46
2022/01/14 08:28:41;;;;;;;452.20;245.35;;;7.60;51.60;;;;;;5054393;28;20033;-59
2022/01/14 08:31:07;;;;;;;580.28;321.25;;;7.60;51.30;;;;;;5055077;28;20021;-53
2022/01/14 08:33:32;;;;;;;499.20;288.45;;;7.20;50.70;;;;;;5056092;28;20444;-49
2022/01/14 08:35:58;;;;;;;534.95;311.35;;;6.50;52.50;;;;;;5055173;28;20017;-57
2022/01/14 08:38:24;;;;;;;567.70;330.30;;;6.60;53.20;;;;;;5051714;28;20035;-64
2022/01/14 08:40:50;;;;;;;597.17;341.83;;;7.20;51.60;;;;;;5054114;28;20024;-52
2022/01/14 08:43:16;;;;;;;575.58;336.67;;;6.70;52.10;;;;;;5055633;28;20417;-62
2022/01/14 08:45:42;;;;;;;510.35;295.25;;;6.30;52.70;;;;;;5053854;28;20048;-53
2022/01/14 08:48:08;;;;;;;520.17;295.45;;;5.90;54.50;;;;;;5054321;28;20024;-71
2022/01/14 08:50:39;;;;;;;476.50;266.52;;;5.90;55.30;;;;;;5055465;28;20021;-52
2022/01/14 08:53:08;;;;;;;410.35;218.98;;;5.60;55.30;;;;;;5054962;28;20028;-61
2022/01/14 08:55:35;;;;;;;337.08;168.35;;;5.20;57.00;;;;;;5055895;28;20112;-56
2022/01/14 08:58:03;;;;;;;313.55;161.30;;;5.30;57.00;;;;;;5055519;28;20115;-49
2022/01/14 09:00:29;;;;;;;286.33;141.98;;;5.50;57.80;;;;;;5054355;28;20025;-64
2022/01/14 09:02:55;;;;;;;237.88;124.65;;;5.60;58.60;;;;;;5054246;28;20021;-64
2022/01/14 09:05:22;;;;;;;203.38;105.50;;;5.50;58.60;;;;;;5054067;28;20017;-51
2022/01/14 09:07:49;;;;;;;185.40;92.55;;;5.90;58.60;;;;;;5054415;28;20017;-55
2022/01/14 09:10:15;;;;;;;211.45;112.13;;;6.70;57.00;;;;;;5053699;28;20079;-50
2022/01/14 09:12:41;;;;;;;278.25;146.70;;;7.10;56.10;;;;;;5053090;28;20044;-52
2022/01/14 09:15:08;;;;;;;248.68;136.18;;;7.10;54.60;;;;;;5053988;28;20490;-60
2022/01/14 09:17:34;;;;;;;254.73;141.63;;;7.00;54.20;;;;;;5054994;28;20029;-52
2022/01/14 09:20:02;;;;;;;293.05;164.90;;;6.90;54.40;;;;;;5053938;28;20028;-57
2022/01/14 09:22:30;;;;;;;298.75;167.15;;;6.70;54.60;;;;;;5053216;28;20022;-50
2022/01/14 09:24:58;;;;;;;277.25;152.52;;;6.70;54.60;;;;;;5052253;28;20045;-56
2022/01/14 09:27:24;;;;;;;275.08;151.35;;;6.80;56.10;;;;;;5053859;28;20470;-55
2022/01/14 09:29:49;;;;;;;281.40;150.73;;;6.90;54.90;;;;;;5054456;28;20067;-58
2022/01/14 09:32:15;;;;;;;290.67;161.18;;;7.30;55.30;;;;;;5054384;28;20025;-52
2022/01/14 09:34:41;;;;;;;316.45;177.90;;;7.40;54.40;;;;;;5054603;28;20108;-60
2022/01/14 09:37:07;;;;;;;348.33;197.27;;;7.90;54.30;;;;;;5054810;28;20433;-48
2022/01/14 09:39:34;;;;;;;308.40;174.27;;;8.00;52.80;;;;;;5054532;28;20017;-52
2022/01/14 09:42:00;;;;;;;333.13;185.07;;;8.30;53.20;;;;;;5054980;28;20406;-51
2022/01/14 09:44:26;;;;;;;310.20;182.35;;;8.60;52.20;;;;;;5055016;28;20029;-49
2022/01/14 09:46:53;;;;;;;305.33;174.68;;;8.90;51.50;;;;;;5055049;28;20029;-54
2022/01/14 09:49:19;;;;;;;264.98;153.07;;;9.10;50.90;;;;;;5054271;28;20032;-53
2022/01/14 09:51:46;;;;;;;252.15;145.55;;;9.20;52.10;;;;;;5055469;28;20021;-52
2022/01/14 09:54:12;;;;;;;252.88;149.65;;;9.50;50.80;;;;;;5052531;28;20368;-63
2022/01/14 09:56:39;;;;;;;276.42;162.30;;;9.80;50.00;;;;;;5048769;28;20097;-61
2022/01/14 09:59:05;;;;;;;333.33;198.35;;;9.90;49.10;;;;;;5045701;28;20021;-51
2022/01/14 10:01:41;;;;;;;299.85;181.32;;;9.80;48.50;;;;;;5047537;28;20032;-68
2022/01/14 10:04:07;;;;;;;311.08;196.43;;;9.90;49.40;;;;;;5047896;28;20044;-69
2022/01/14 10:06:39;;;;;;;322.25;197.32;;;10.20;49.00;;;;;;5049041;28;20737;-51
2022/01/14 10:09:24;;;;;;;325.63;204.13;;;10.30;48.20;;;;;;5052606;28;20032;-54
2022/01/14 10:12:07;;;;;;;352.55;218.57;;;10.60;48.60;;;;;;5053546;28;20021;-64
2022/01/14 10:14:36;;;;;;;386.63;231.55;;;10.50;48.60;;;;;;5053731;28;20025;-65
2022/01/14 10:17:06;;;;;;;345.63;213.48;;;10.70;47.50;;;;;;5049196;28;20036;-56
2022/01/14 10:19:40;;;;;;;316.45;199.50;;;10.50;49.20;;;;;;5053424;28;20081;-57
2022/01/14 10:22:21;;;;;;;297.55;175.05;;;10.60;49.30;;;;;;5054206;28;20151;-63
2022/01/14 10:25:00;;;;;;;259.42;158.05;;;10.90;48.10;;;;;;5054181;28;20113;-58
2022/01/14 10:27:37;;;;;;;230.63;146.80;;;10.90;48.30;;;;;;5054222;28;20020;-58
2022/01/14 10:30:16;;;;;;;239.20;146.20;;;11.10;47.60;;;;;;5052616;28;20391;-52
2022/01/14 10:32:44;;;;;;;206.82;127.88;;;11.10;47.80;;;;;;5054451;28;20016;-52
2022/01/14 10:35:17;;;;;;;247.60;145.00;;;11.30;47.30;;;;;;5053592;28;20039;-59
2022/01/14 10:37:43;;;;;;;207.02;129.02;;;11.60;46.50;;;;;;5053200;28;20035;-48
2022/01/14 10:40:13;;;;;;;185.45;116.72;;;11.40;47.30;;;;;;5053304;28;20092;-52
2022/01/14 10:42:40;;;;;;;168.00;106.88;;;11.50;47.70;;;;;;5052104;28;20487;-68
2022/01/14 10:45:19;;;;;;;200.63;115.10;;;11.70;47.70;;;;;;5049346;28;20037;-54
2022/01/14 10:48:03;;;;;;;172.05;102.30;;;11.80;46.30;;;;;;5051007;28;20032;-58
2022/01/14 10:50:40;;;;;;;143.90;91.85;;;11.70;47.60;;;;;;5050138;28;20111;-61
2022/01/14 10:53:22;;;;;;;133.48;84.80;;;11.80;48.20;;;;;;5050331;28;20119;-57
2022/01/14 10:55:59;;;;;;;137.15;84.03;;;11.90;47.30;;;;;;5052167;28;20028;-59
2022/01/14 10:58:28;;;;;;;153.45;92.38;;;12.30;46.70;;;;;;5053206;28;20052;-62
2022/01/14 11:00:56;;;;;;;146.02;86.35;;;12.20;48.90;;;;;;5053543;28;20029;-59
2022/01/14 11:04:03;;;;;;;147.40;94.82;;;12.20;47.40;;;;;;5049474;28;20025;-53
2022/01/14 11:06:31;;;;;;;180.55;104.57;;;12.30;46.60;;;;;;5052258;28;20509;-48
2022/01/14 11:09:01;;;;;;;152.13;92.25;;;12.40;45.90;;;;;;5051748;28;20028;-52
2022/01/14 11:11:41;;;;;;;155.07;92.88;;;12.50;46.90;;;;;;5052664;28;20526;-49
2022/01/14 11:14:07;;;;;;;175.70;103.05;;;12.70;46.00;;;;;;5053056;28;20031;-60
2022/01/14 11:16:35;;;;;;;161.43;99.38;;;13.00;46.10;;;;;;5047412;28;20100;-54
2022/01/14 11:19:02;;;;;;;152.55;95.30;;;13.10;45.80;;;;;;5045076;28;20112;-53
2022/01/14 11:24:19;;;;;;;136.57;85.90;;;13.40;45.30;;;;;;5050470;28;20514;-66
2022/01/14 11:26:47;;;;;;;146.48;94.63;;;13.60;45.30;;;;;;5042036;28;20056;-60
2022/01/14 11:29:17;;;;;;;142.40;91.03;;;13.70;45.90;;;;;;5047911;28;20041;-55
2022/01/14 11:31:43;;;;;;;135.00;89.05;;;13.70;45.70;;;;;;5053502;28;20028;-59
2022/01/14 11:34:33;;;;;;;125.05;80.72;;;13.70;45.90;;;;;;5053246;28;20478;-54
2022/01/14 11:37:04;;;;;;;128.32;85.20;;;13.60;45.90;;;;;;5052835;28;20033;-58
2022/01/14 11:39:34;;;;;;;123.45;80.72;;;13.50;46.40;;;;;;5053272;28;20482;-57
2022/01/14 11:42:14;;;;;;;121.88;79.30;;;13.50;46.60;;;;;;5053235;28;20060;-58
2022/01/14 11:44:55;;;;;;;117.18;73.05;;;13.60;46.10;;;;;;5052430;28;20025;-61
2022/01/14 11:47:23;;;;;;;140.55;87.20;;;13.80;45.80;;;;;;5052223;28;20059;-61
2022/01/14 11:49:51;;;;;;;117.25;74.15;;;14.10;44.70;;;;;;5052686;28;20092;-52
2022/01/14 11:52:37;;;;;;;114.78;72.95;;;14.20;45.90;;;;;;5052101;28;20321;-44
2022/01/14 11:55:05;;;;;;;110.90;73.13;;;14.30;44.80;;;;;;5051775;28;20425;-49
2022/01/14 11:57:44;;;;;;;112.22;71.13;;;14.50;44.50;;;;;;5052493;28;20510;-53
2022/01/14 12:00:30;;;;;;;146.13;89.18;;;14.70;43.80;;;;;;5052449;28;20033;-50
2022/01/14 12:03:07;;;;;;;168.02;104.25;;;14.70;45.30;;;;;;5054872;28;20060;-55
2022/01/14 12:05:38;;;;;;;169.73;102.75;;;14.70;45.00;;;;;;5056466;28;20085;-47
2022/01/14 12:08:10;;;;;;;305.83;183.23;;;14.80;44.40;;;;;;5056641;28;20540;-51
2022/01/14 12:10:37;;;;;;;233.25;150.00;;;14.20;45.50;;;;;;5052025;28;20462;-58
2022/01/14 12:13:38;;;;;;;203.00;133.30;;;13.50;47.40;;;;;;5035251;28;20034;-58
2022/01/14 12:18:58;;;;;;;182.68;113.60;;;13.60;47.20;;;;;;5034015;28;20368;-54
2022/01/14 12:21:44;;;;;;;255.63;162.10;;;13.00;48.20;;;;;;5034244;28;20030;-57
2022/01/14 12:24:19;;;;;;;211.05;127.22;;;12.10;50.30;;;;;;5045132;28;20052;-55
2022/01/14 12:29:45;;;;;;;231.02;144.95;;;11.20;54.00;;;;;;5034685;28;20029;-58
2022/01/14 12:32:11;;;;;;;296.52;168.57;;;10.90;53.60;;;;;;5035061;28;20032;-64
2022/01/14 12:34:58;;;;;;;342.55;208.27;;;10.90;54.50;;;;;;5034240;28;20029;-52
2022/01/14 12:37:30;;;;;;;209.07;130.38;;;10.80;55.40;;;;;;5034630;28;20018;-58
2022/01/14 12:39:57;;;;;;;176.52;112.68;;;10.90;55.60;;;;;;5034757;28;20387;-55
2022/01/14 12:42:24;;;;;;;177.82;107.07;;;10.90;55.90;;;;;;5034887;28;20033;-55
2022/01/14 12:44:52;;;;;;;163.15;99.13;;;11.10;55.30;;;;;;5034012;28;20104;-51
2022/01/14 12:47:27;;;;;;;147.10;91.07;;;10.90;56.40;;;;;;5033033;28;20030;-57
2022/01/14 12:49:53;;;;;;;160.30;92.60;;;10.80;56.80;;;;;;5037490;28;20029;-50
2022/01/14 12:52:37;;;;;;;161.00;89.38;;;10.80;57.00;;;;;;5053704;28;20025;-52
2022/01/14 12:55:05;;;;;;;179.52;94.10;;;10.40;58.10;;;;;;5050622;28;20127;-55
2022/01/14 12:57:30;;;;;;;145.27;76.40;;;10.30;59.80;;;;;;5054287;28;20025;-58